createdAt,value
2023-03-29T00:02:06.090Z,-5.72
2023-03-29T00:04:33.760Z,-5.75
2023-03-29T00:07:01.327Z,-5.75
2023-03-29T00:09:28.903Z,-5.80
2023-03-29T00:11:56.581Z,-5.87
2023-03-29T00:14:24.146Z,-5.92
2023-03-29T00:16:51.738Z,-5.91
2023-03-29T00:19:19.323Z,-5.92
2023-03-29T00:21:46.944Z,-5.98
2023-03-29T00:24:14.514Z,-6.09
2023-03-29T00:26:42.119Z,-6.16
2023-03-29T00:29:09.807Z,-6.23
2023-03-29T00:31:37.531Z,-6.27
2023-03-29T00:34:05.111Z,-6.31
2023-03-29T00:36:32.657Z,-6.37
2023-03-29T00:39:00.256Z,-6.44
2023-03-29T00:41:27.987Z,-6.52
2023-03-29T00:44:03.725Z,-6.61
2023-03-29T00:46:32.027Z,-6.68
2023-03-29T00:49:09.394Z,-6.72
2023-03-29T00:51:40.765Z,-6.70
2023-03-29T00:54:13.517Z,-6.66
2023-03-29T00:56:44.695Z,-6.62
2023-03-29T00:59:28.143Z,-6.65
2023-03-29T01:02:06.747Z,-6.73
2023-03-29T01:04:50.512Z,-6.83
2023-03-29T01:07:25.862Z,-6.92
2023-03-29T01:10:00.919Z,-7.01
2023-03-29T01:12:35.205Z,-7.10
2023-03-29T01:15:09.048Z,-7.17
2023-03-29T01:17:37.757Z,-7.24
2023-03-29T01:20:15.056Z,-7.30
2023-03-29T01:23:01.169Z,-7.36
2023-03-29T01:25:51.842Z,-7.43
2023-03-29T01:28:24.426Z,-7.50
2023-03-29T01:30:56.163Z,-7.57
2023-03-29T01:33:42.797Z,-7.62
2023-03-29T01:36:24.017Z,-7.65
2023-03-29T01:38:58.870Z,-7.64
2023-03-29T01:41:43.315Z,-7.65
2023-03-29T01:44:19.371Z,-7.68
2023-03-29T01:46:52.338Z,-7.73
2023-03-29T01:49:37.071Z,-7.78
2023-03-29T01:52:44.655Z,-7.85
2023-03-29T01:55:16.937Z,-7.92
2023-03-29T01:57:46.657Z,-7.99
2023-03-29T02:00:17.213Z,-8.06
2023-03-29T02:02:46.942Z,-8.11
2023-03-29T02:05:16.180Z,-8.16
2023-03-29T02:07:46.096Z,-8.21
2023-03-29T02:10:15.695Z,-8.26
2023-03-29T02:12:43.517Z,-8.32
2023-03-29T02:15:14.406Z,-8.35
2023-03-29T02:17:42.370Z,-8.38
2023-03-29T02:20:21.426Z,-8.41
2023-03-29T02:23:03.915Z,-8.43
2023-03-29T02:25:31.946Z,-8.46
2023-03-29T02:28:00.536Z,-8.48
2023-03-29T02:30:34.728Z,-8.51
2023-03-29T02:33:12.478Z,-8.55
2023-03-29T02:36:12.182Z,-8.59
2023-03-29T02:38:40.709Z,-8.62
2023-03-29T02:41:09.714Z,-8.65
2023-03-29T02:43:39.684Z,-8.67
2023-03-29T02:46:07.875Z,-8.67
2023-03-29T02:48:37.600Z,-8.64
2023-03-29T02:51:13.660Z,-8.66
2023-03-29T02:53:48.826Z,-8.68
2023-03-29T02:56:16.427Z,-8.70
2023-03-29T02:58:44.012Z,-8.73
2023-03-29T03:01:11.930Z,-8.76
2023-03-29T03:03:39.604Z,-8.78
2023-03-29T03:06:07.352Z,-8.81
2023-03-29T03:08:34.898Z,-8.82
2023-03-29T03:11:02.850Z,-8.82
2023-03-29T03:13:30.764Z,-8.81
2023-03-29T03:15:58.401Z,-8.82
2023-03-29T03:18:25.998Z,-8.82
2023-03-29T03:21:00.633Z,-8.83
2023-03-29T03:23:28.414Z,-8.87
2023-03-29T03:25:56.859Z,-8.90
2023-03-29T03:28:24.602Z,-8.94
2023-03-29T03:30:52.157Z,-8.97
2023-03-29T03:33:20.031Z,-8.98
2023-03-29T03:35:47.646Z,-9.00
2023-03-29T03:38:15.455Z,-9.00
2023-03-29T03:40:43.086Z,-8.98
2023-03-29T03:43:10.697Z,-8.97
2023-03-29T03:45:38.329Z,-8.96
2023-03-29T03:48:06.288Z,-8.96
2023-03-29T03:50:33.975Z,-8.98
2023-03-29T03:53:01.569Z,-8.98
2023-03-29T03:55:29.159Z,-8.99
2023-03-29T03:57:56.900Z,-9.00
2023-03-29T04:00:24.702Z,-9.01
2023-03-29T04:02:53.058Z,-9.03
2023-03-29T04:05:20.777Z,-9.04
2023-03-29T04:07:48.340Z,-9.06
2023-03-29T04:10:15.927Z,-9.07
2023-03-29T04:12:43.650Z,-9.07
2023-03-29T04:15:12.389Z,-9.06
2023-03-29T04:17:40.160Z,-9.06
2023-03-29T04:20:08.177Z,-9.05
2023-03-29T04:22:35.804Z,-9.03
2023-03-29T04:25:03.547Z,-9.01
2023-03-29T04:27:31.263Z,-9.00
2023-03-29T04:29:58.863Z,-8.96
2023-03-29T04:32:26.406Z,-8.92
2023-03-29T04:34:53.992Z,-8.86
2023-03-29T04:37:21.580Z,-8.80
2023-03-29T04:39:49.740Z,-8.78
2023-03-29T04:42:17.302Z,-8.73
2023-03-29T04:44:44.897Z,-8.68
2023-03-29T04:47:12.502Z,-8.61
2023-03-29T04:49:40.560Z,-8.55
2023-03-29T04:52:08.295Z,-8.50
2023-03-29T04:54:35.865Z,-8.46
2023-03-29T04:57:05.297Z,-8.41
2023-03-29T04:59:32.900Z,-8.36
2023-03-29T05:02:00.840Z,-8.30
2023-03-29T05:04:29.201Z,-8.21
2023-03-29T05:06:57.391Z,-8.02
2023-03-29T05:09:25.273Z,-7.78
2023-03-29T05:11:52.879Z,-7.58
2023-03-29T05:14:20.509Z,-7.40
2023-03-29T05:16:48.068Z,-7.21
2023-03-29T05:19:15.870Z,-7.04
2023-03-29T05:21:45.107Z,-6.87
2023-03-29T05:24:13.273Z,-6.68
2023-03-29T05:26:40.855Z,-6.49
2023-03-29T05:29:08.479Z,-6.35
2023-03-29T05:31:36.497Z,-6.23
2023-03-29T05:34:04.525Z,-6.10
2023-03-29T05:36:32.295Z,-5.97
2023-03-29T05:38:59.919Z,-5.84
2023-03-29T05:41:27.873Z,-5.69
2023-03-29T05:43:55.670Z,-5.57
2023-03-29T05:46:23.663Z,-5.44
2023-03-29T05:48:51.295Z,-5.32
2023-03-29T05:51:19.318Z,-5.19
2023-03-29T05:53:46.973Z,-5.08
2023-03-29T05:56:14.567Z,-4.97
2023-03-29T05:58:42.700Z,-4.85
2023-03-29T06:01:13.692Z,-4.74
2023-03-29T06:03:41.486Z,-4.61
2023-03-29T06:06:09.483Z,-4.47
2023-03-29T06:08:37.047Z,-4.36
2023-03-29T06:11:06.595Z,-4.24
2023-03-29T06:13:34.646Z,-4.13
2023-03-29T06:16:02.224Z,-4.02
2023-03-29T06:18:30.345Z,-3.91
2023-03-29T06:20:57.997Z,-3.81
2023-03-29T06:23:25.595Z,-3.71
2023-03-29T06:25:53.227Z,-3.62
2023-03-29T06:28:21.677Z,-3.54
2023-03-29T06:30:49.668Z,-3.46
2023-03-29T06:33:17.410Z,-3.37
2023-03-29T06:35:48.006Z,-3.29
2023-03-29T06:38:16.080Z,-3.20
2023-03-29T06:40:43.650Z,-3.10
2023-03-29T06:43:11.300Z,-3.02
2023-03-29T06:45:39.393Z,-2.92
2023-03-29T06:48:07.884Z,-2.82
2023-03-29T06:50:36.132Z,-2.72
2023-03-29T06:53:04.156Z,-2.64
2023-03-29T06:55:31.767Z,-2.56
2023-03-29T06:58:01.640Z,-2.50
2023-03-29T07:00:30.418Z,-2.39
2023-03-29T07:02:58.698Z,-2.28
2023-03-29T07:05:27.760Z,-2.17
2023-03-29T07:07:55.911Z,-2.06
2023-03-29T07:10:32.959Z,-1.96
2023-03-29T07:13:02.097Z,-1.83
2023-03-29T07:15:29.808Z,-1.70
2023-03-29T07:17:58.101Z,-1.58
2023-03-29T07:20:26.117Z,-1.50
2023-03-29T07:22:53.773Z,-1.38
2023-03-29T07:25:23.246Z,-1.25
2023-03-29T07:27:51.281Z,-1.14
2023-03-29T07:30:21.650Z,-1.06
2023-03-29T07:32:50.882Z,-0.96
2023-03-29T07:35:18.774Z,-0.84
2023-03-29T07:37:46.595Z,-0.71
2023-03-29T07:40:16.632Z,-0.58
2023-03-29T07:42:48.935Z,-0.46
2023-03-29T07:45:17.054Z,-0.36
2023-03-29T07:47:44.670Z,-0.25
2023-03-29T07:50:12.332Z,-0.18
2023-03-29T07:52:40.614Z,-0.11
2023-03-29T07:55:09.821Z,-0.01
2023-03-29T07:57:37.508Z,0.11
2023-03-29T08:00:08.658Z,0.19
2023-03-29T08:02:36.471Z,0.29
2023-03-29T08:05:04.401Z,0.38
2023-03-29T08:07:32.039Z,0.47
2023-03-29T08:09:59.630Z,0.58
2023-03-29T08:12:27.246Z,0.70
2023-03-29T08:14:54.806Z,0.79
2023-03-29T08:17:22.436Z,0.89
2023-03-29T08:19:50.926Z,1.01
2023-03-29T08:22:19.081Z,1.12
2023-03-29T08:24:46.650Z,1.21
2023-03-29T08:27:14.275Z,1.30
2023-03-29T08:29:41.869Z,1.44
2023-03-29T08:32:09.450Z,1.54
2023-03-29T08:34:37.036Z,1.63
2023-03-29T08:37:04.914Z,1.77
2023-03-29T08:39:32.539Z,1.97
2023-03-29T08:42:17.140Z,2.17
2023-03-29T08:44:50.786Z,2.40
2023-03-29T08:47:50.080Z,2.60
2023-03-29T08:50:19.208Z,2.81
2023-03-29T08:52:52.421Z,2.99
2023-03-29T08:55:42.525Z,3.08
2023-03-29T08:58:18.272Z,3.23
2023-03-29T09:00:58.300Z,3.47
2023-03-29T09:03:34.512Z,3.69
2023-03-29T09:06:08.208Z,3.86
2023-03-29T09:08:39.688Z,3.89
2023-03-29T09:11:25.946Z,3.90
2023-03-29T09:14:01.881Z,3.91
2023-03-29T09:16:50.866Z,3.81
2023-03-29T09:19:42.520Z,3.68
2023-03-29T09:22:43.840Z,3.59
2023-03-29T09:25:50.812Z,3.55
2023-03-29T09:28:37.909Z,3.59
2023-03-29T09:31:22.622Z,3.64
2023-03-29T09:34:04.683Z,3.74
2023-03-29T09:37:02.892Z,3.84
2023-03-29T09:39:30.585Z,3.98
2023-03-29T09:42:02.662Z,4.11
2023-03-29T09:44:37.565Z,4.29
2023-03-29T09:47:17.133Z,4.51
2023-03-29T09:49:49.212Z,4.79
2023-03-29T09:52:18.055Z,5.54
2023-03-29T09:54:45.772Z,6.88
2023-03-29T09:57:16.374Z,8.05
2023-03-29T09:59:46.252Z,9.09
2023-03-29T10:02:14.255Z,10.11
2023-03-29T10:04:42.226Z,10.99
2023-03-29T10:07:17.668Z,11.45
2023-03-29T10:09:46.705Z,11.81
2023-03-29T10:12:15.904Z,12.39
2023-03-29T10:14:48.115Z,13.01
2023-03-29T10:17:20.589Z,13.47
2023-03-29T10:19:52.670Z,13.82
2023-03-29T10:22:25.379Z,14.13
2023-03-29T10:24:54.808Z,14.11
2023-03-29T10:27:26.549Z,14.19
2023-03-29T10:29:55.769Z,14.38
2023-03-29T10:32:33.186Z,14.89
2023-03-29T10:35:10.101Z,15.69
2023-03-29T10:37:48.751Z,16.41
2023-03-29T10:40:22.238Z,16.68
2023-03-29T10:42:51.208Z,16.46
2023-03-29T10:45:24.026Z,16.79
2023-03-29T10:47:51.590Z,17.16
2023-03-29T10:50:19.265Z,17.19
2023-03-29T10:52:46.893Z,17.34
2023-03-29T10:55:14.596Z,16.99
2023-03-29T10:57:44.792Z,16.85
2023-03-29T11:00:57.014Z,17.05
2023-03-29T11:03:42.715Z,17.35
2023-03-29T11:06:28.896Z,17.63
2023-03-29T11:08:59.300Z,17.96
2023-03-29T11:11:48.893Z,18.23
2023-03-29T11:14:19.482Z,18.88
2023-03-29T11:17:05.105Z,19.21
2023-03-29T11:19:53.789Z,19.66
2023-03-29T11:23:03.302Z,20.37
2023-03-29T11:25:59.486Z,20.89
2023-03-29T11:28:26.990Z,20.61
2023-03-29T11:31:05.308Z,20.65
2023-03-29T11:33:47.597Z,20.13
2023-03-29T11:36:28.259Z,20.16
2023-03-29T11:39:11.748Z,20.57
2023-03-29T11:41:44.442Z,20.76
2023-03-29T11:44:24.290Z,21.38
2023-03-29T11:47:00.221Z,21.80
2023-03-29T11:49:42.996Z,22.32
2023-03-29T11:52:17.743Z,23.30
2023-03-29T11:55:01.137Z,24.05
2023-03-29T11:57:40.785Z,24.57
2023-03-29T12:00:27.486Z,25.09
2023-03-29T12:03:12.424Z,25.09
2023-03-29T12:05:48.267Z,25.10
2023-03-29T12:08:20.656Z,24.80
2023-03-29T12:10:55.060Z,24.42
2023-03-29T12:13:29.057Z,24.99
2023-03-29T12:16:08.795Z,25.00
2023-03-29T12:18:42.025Z,24.35
2023-03-29T12:21:14.703Z,24.55
2023-03-29T12:23:44.478Z,24.54
2023-03-29T12:26:18.076Z,24.97
2023-03-29T12:29:28.598Z,25.41
2023-03-29T12:32:33.771Z,25.34
2023-03-29T12:35:28.505Z,25.06
2023-03-29T12:38:22.563Z,24.28
2023-03-29T12:41:01.743Z,23.96
2023-03-29T12:43:37.569Z,24.33
2023-03-29T12:46:11.045Z,24.50
2023-03-29T12:48:41.078Z,24.16
2023-03-29T12:51:13.760Z,24.26
2023-03-29T12:53:47.428Z,24.76
2023-03-29T12:56:17.823Z,24.25
2023-03-29T12:58:45.339Z,24.02
2023-03-29T13:01:24.657Z,24.11
2023-03-29T13:04:20.004Z,22.95
2023-03-29T13:06:47.534Z,22.16
2023-03-29T13:09:46.774Z,21.46
2023-03-29T13:12:41.070Z,20.87
2023-03-29T13:15:14.573Z,19.98
2023-03-29T13:18:10.894Z,18.93
2023-03-29T13:20:47.318Z,18.19
2023-03-29T13:23:29.887Z,17.99
2023-03-29T13:26:03.772Z,17.60
2023-03-29T13:28:58.900Z,17.37
2023-03-29T13:31:39.202Z,17.15
2023-03-29T13:34:27.208Z,17.03
2023-03-29T13:37:33.376Z,16.89
2023-03-29T13:40:00.985Z,16.61
2023-03-29T13:42:34.400Z,16.32
2023-03-29T13:45:14.261Z,16.39
2023-03-29T13:47:58.351Z,16.62
2023-03-29T13:50:51.453Z,17.10
2023-03-29T13:53:24.066Z,17.66
2023-03-29T13:55:53.898Z,17.89
2023-03-29T13:58:32.528Z,17.85
2023-03-29T14:01:13.349Z,17.61
2023-03-29T14:03:44.920Z,17.39
2023-03-29T14:06:16.954Z,17.24
2023-03-29T14:08:45.266Z,17.34
2023-03-29T14:11:22.907Z,17.22
2023-03-29T14:13:55.282Z,16.91
2023-03-29T14:16:26.933Z,16.72
2023-03-29T14:18:59.022Z,16.91
2023-03-29T14:21:26.768Z,17.36
2023-03-29T14:23:57.931Z,17.74
2023-03-29T14:26:32.178Z,18.02
2023-03-29T14:29:01.434Z,18.64
2023-03-29T14:31:34.820Z,20.09
2023-03-29T14:34:05.663Z,20.65
2023-03-29T14:36:34.202Z,20.42
2023-03-29T14:39:05.369Z,19.85
2023-03-29T14:41:36.057Z,20.46
2023-03-29T14:44:06.467Z,21.33
2023-03-29T14:46:35.051Z,21.63
2023-03-29T14:49:03.712Z,22.81
2023-03-29T14:51:31.403Z,23.78
2023-03-29T14:54:01.712Z,24.37
2023-03-29T14:56:30.894Z,23.92
2023-03-29T14:59:00.050Z,23.39
2023-03-29T15:01:27.723Z,22.67
2023-03-29T15:04:01.760Z,22.82
2023-03-29T15:06:30.745Z,23.43
2023-03-29T15:09:05.225Z,24.25
2023-03-29T15:11:34.526Z,24.70
2023-03-29T15:14:04.974Z,25.65
2023-03-29T15:16:33.412Z,26.02
2023-03-29T15:19:01.978Z,25.87
2023-03-29T15:21:34.082Z,24.47
2023-03-29T15:24:04.096Z,24.05
2023-03-29T15:26:34.612Z,23.93
2023-03-29T15:29:10.283Z,23.94
2023-03-29T15:31:40.339Z,23.60
2023-03-29T15:34:28.417Z,22.89
2023-03-29T15:36:57.188Z,21.27
2023-03-29T15:39:25.811Z,20.35
2023-03-29T15:41:54.355Z,19.80
2023-03-29T15:44:28.467Z,19.96
2023-03-29T15:46:56.433Z,20.40
2023-03-29T15:49:24.028Z,20.45
2023-03-29T15:51:53.276Z,19.85
2023-03-29T15:54:21.800Z,18.75
2023-03-29T15:56:55.345Z,18.15
2023-03-29T15:59:23.303Z,17.60
2023-03-29T16:01:50.938Z,16.89
2023-03-29T16:04:20.991Z,16.23
2023-03-29T16:06:51.840Z,15.56
2023-03-29T16:09:23.412Z,15.17
2023-03-29T16:11:51.343Z,14.87
2023-03-29T16:14:20.560Z,14.30
2023-03-29T16:16:48.241Z,13.41
2023-03-29T16:19:15.852Z,12.73
2023-03-29T16:21:43.667Z,12.12
2023-03-29T16:24:16.955Z,11.60
2023-03-29T16:26:44.671Z,11.05
2023-03-29T16:29:12.417Z,10.50
2023-03-29T16:31:40.104Z,9.93
2023-03-29T16:34:10.547Z,9.44
2023-03-29T16:36:38.167Z,9.00
2023-03-29T16:39:06.889Z,8.62
2023-03-29T16:41:34.455Z,8.29
2023-03-29T16:44:02.329Z,8.00
2023-03-29T16:46:30.393Z,7.76
2023-03-29T16:48:58.156Z,7.54
2023-03-29T16:51:26.191Z,7.34
2023-03-29T16:53:53.888Z,7.13
2023-03-29T16:56:21.446Z,6.97
2023-03-29T16:58:49.556Z,6.81
2023-03-29T17:01:17.177Z,6.64
2023-03-29T17:03:44.866Z,6.48
2023-03-29T17:06:12.780Z,6.32
2023-03-29T17:08:41.084Z,6.18
2023-03-29T17:11:09.056Z,6.09
2023-03-29T17:13:36.771Z,5.99
2023-03-29T17:16:06.190Z,5.88
2023-03-29T17:18:34.169Z,5.80
2023-03-29T17:21:01.757Z,5.71
2023-03-29T17:23:29.420Z,5.63
2023-03-29T17:25:57.309Z,5.56
2023-03-29T17:28:25.020Z,5.48
2023-03-29T17:30:52.862Z,5.38
2023-03-29T17:33:21.806Z,5.30
2023-03-29T17:35:50.312Z,5.23
2023-03-29T17:38:17.923Z,5.17
2023-03-29T17:40:52.349Z,5.10
2023-03-29T17:43:20.373Z,5.03
2023-03-29T17:45:52.193Z,4.96
2023-03-29T17:48:20.549Z,4.87
2023-03-29T17:50:48.281Z,4.77
2023-03-29T17:53:16.025Z,4.66
2023-03-29T17:55:43.946Z,4.55
2023-03-29T17:58:11.866Z,4.49
2023-03-29T18:00:39.854Z,4.42
2023-03-29T18:03:07.918Z,4.38
2023-03-29T18:05:35.727Z,4.31
2023-03-29T18:08:03.867Z,4.23
2023-03-29T18:10:31.486Z,4.15
2023-03-29T18:13:01.484Z,4.07
2023-03-29T18:15:29.077Z,3.99
2023-03-29T18:17:56.829Z,3.90
2023-03-29T18:20:24.664Z,3.77
2023-03-29T18:22:52.244Z,3.65
2023-03-29T18:25:20.076Z,3.54
2023-03-29T18:27:47.676Z,3.45
2023-03-29T18:30:15.691Z,3.36
2023-03-29T18:32:43.297Z,3.29
2023-03-29T18:35:11.043Z,3.23
2023-03-29T18:37:38.910Z,3.19
2023-03-29T18:40:07.445Z,3.13
2023-03-29T18:42:35.406Z,3.11
2023-03-29T18:45:03.882Z,3.07
2023-03-29T18:47:31.665Z,3.03
2023-03-29T18:49:59.480Z,2.97
2023-03-29T18:52:27.061Z,2.88
2023-03-29T18:54:54.874Z,2.79
2023-03-29T18:57:22.976Z,2.73
2023-03-29T18:59:50.582Z,2.69
2023-03-29T19:02:18.289Z,2.67
2023-03-29T19:04:45.947Z,2.67
2023-03-29T19:07:13.682Z,2.66
2023-03-29T19:09:41.516Z,2.64
2023-03-29T19:12:09.297Z,2.61
2023-03-29T19:14:36.906Z,2.57
2023-03-29T19:17:04.667Z,2.55
2023-03-29T19:19:32.364Z,2.54
2023-03-29T19:22:00.703Z,2.54
2023-03-29T19:24:28.818Z,2.55
2023-03-29T19:26:56.634Z,2.52
2023-03-29T19:29:24.493Z,2.46
2023-03-29T19:31:52.238Z,2.44
2023-03-29T19:34:20.249Z,2.41
2023-03-29T19:36:47.881Z,2.37
2023-03-29T19:39:15.920Z,2.34
2023-03-29T19:41:43.526Z,2.30
2023-03-29T19:44:11.139Z,2.26
2023-03-29T19:46:38.778Z,2.20
2023-03-29T19:49:06.720Z,2.11
2023-03-29T19:51:34.335Z,2.01
2023-03-29T19:54:01.943Z,1.92
2023-03-29T19:56:29.562Z,1.84
2023-03-29T19:58:57.319Z,1.77
2023-03-29T20:01:24.939Z,1.72
2023-03-29T20:03:53.463Z,1.67
2023-03-29T20:06:21.522Z,1.62
2023-03-29T20:08:49.398Z,1.57
2023-03-29T20:11:17.002Z,1.53
2023-03-29T20:13:45.371Z,1.51
2023-03-29T20:16:16.040Z,1.55
2023-03-29T20:18:44.582Z,1.57
2023-03-29T20:21:14.238Z,1.59
2023-03-29T20:23:42.211Z,1.61
2023-03-29T20:26:09.976Z,1.61
2023-03-29T20:28:37.675Z,1.62
2023-03-29T20:31:07.726Z,1.63
2023-03-29T20:33:36.025Z,1.63
2023-03-29T20:36:03.966Z,1.62
2023-03-29T20:38:32.447Z,1.59
2023-03-29T20:41:00.050Z,1.58
2023-03-29T20:43:27.672Z,1.56
2023-03-29T20:45:55.588Z,1.55
2023-03-29T20:48:23.744Z,1.55
2023-03-29T20:50:51.840Z,1.55
2023-03-29T20:53:19.562Z,1.55
2023-03-29T20:55:47.131Z,1.52
2023-03-29T20:58:15.386Z,1.50
2023-03-29T21:00:43.866Z,1.51
2023-03-29T21:03:11.675Z,1.55
2023-03-29T21:05:39.356Z,1.56
2023-03-29T21:08:06.962Z,1.59
2023-03-29T21:10:34.554Z,1.59
2023-03-29T21:13:02.353Z,1.57
2023-03-29T21:15:30.526Z,1.56
2023-03-29T21:17:58.846Z,1.57
2023-03-29T21:20:26.812Z,1.59
2023-03-29T21:22:54.495Z,1.59
2023-03-29T21:25:22.151Z,1.60
2023-03-29T21:27:49.785Z,1.60
2023-03-29T21:30:17.399Z,1.56
2023-03-29T21:32:45.157Z,1.54
2023-03-29T21:35:13.143Z,1.52
2023-03-29T21:37:40.795Z,1.51
2023-03-29T21:40:08.843Z,1.54
2023-03-29T21:42:36.772Z,1.58
2023-03-29T21:45:04.855Z,1.64
2023-03-29T21:47:32.527Z,1.69
2023-03-29T21:50:00.165Z,1.75
2023-03-29T21:52:27.821Z,1.81
2023-03-29T21:54:55.431Z,1.89
2023-03-29T21:57:23.392Z,1.97
2023-03-29T21:59:51.000Z,2.06
2023-03-29T22:02:18.797Z,2.12
2023-03-29T22:04:46.469Z,2.19
2023-03-29T22:07:14.172Z,2.26
2023-03-29T22:09:41.743Z,2.34
2023-03-29T22:12:09.818Z,2.41
2023-03-29T22:14:37.464Z,2.48
2023-03-29T22:17:05.879Z,2.55
2023-03-29T22:19:34.394Z,2.63
2023-03-29T22:22:02.169Z,2.70
2023-03-29T22:24:29.801Z,2.75
2023-03-29T22:26:57.559Z,2.82
2023-03-29T22:29:25.163Z,2.86
2023-03-29T22:31:52.864Z,2.93
2023-03-29T22:34:20.847Z,2.98
2023-03-29T22:36:48.446Z,3.03
2023-03-29T22:39:16.068Z,3.06
2023-03-29T22:41:43.721Z,3.10
2023-03-29T22:44:11.508Z,3.12
2023-03-29T22:46:39.135Z,3.13
2023-03-29T22:49:06.951Z,3.13
2023-03-29T22:51:34.543Z,3.14
2023-03-29T22:54:02.195Z,3.14
2023-03-29T22:56:29.886Z,3.15
2023-03-29T22:58:57.652Z,3.16
2023-03-29T23:01:25.258Z,3.16
2023-03-29T23:03:52.897Z,3.17
2023-03-29T23:06:20.576Z,3.16
2023-03-29T23:08:48.406Z,3.16
2023-03-29T23:11:16.059Z,3.15
2023-03-29T23:13:43.692Z,3.15
2023-03-29T23:16:11.342Z,3.16
2023-03-29T23:18:38.934Z,3.17
2023-03-29T23:21:06.859Z,3.18
2023-03-29T23:23:35.377Z,3.19
2023-03-29T23:26:03.198Z,3.20
2023-03-29T23:28:31.132Z,3.21
2023-03-29T23:31:11.241Z,3.20
2023-03-29T23:33:41.194Z,3.21
2023-03-29T23:36:11.622Z,3.21
2023-03-29T23:38:39.538Z,3.23
2023-03-29T23:41:09.436Z,3.26
2023-03-29T23:43:39.316Z,3.30
2023-03-29T23:46:12.931Z,3.32
2023-03-29T23:48:44.027Z,3.36
2023-03-29T23:51:11.732Z,3.39
2023-03-29T23:53:39.407Z,3.41
2023-03-29T23:56:07.473Z,3.42
2023-03-29T23:58:37.534Z,3.44
